Time;durP1;ratioP1;P1;durP2;ratioP2;P2;SDS_P1;SDS_P2;PMS_P1;PMS_P2;Temp;Humidity;BMP_temperature;BMP_pressure;BME280_temperature;BME280_humidity;BME280_pressure;Samples;Min_cycle;Max_cycle;Signal;HPM_P1;HPM_P2
2021/09/06 00:02:22;;;;;;;5.10;1.00;;;;;;;;;;4763665;29;53516;-59
2021/09/06 00:04:48;;;;;;;5.68;0.80;;;;;;;;;;4762917;29;52713;-60
2021/09/06 00:07:14;;;;;;;3.67;0.90;;;;;;;;;;4763244;29;52193;-60
2021/09/06 00:09:40;;;;;;;1.80;0.85;;;;;;;;;;4763167;29;52326;-60
2021/09/06 00:12:08;;;;;;;1.65;0.98;;;;;;;;;;4763451;29;52268;-60
2021/09/06 00:14:35;;;;;;;2.30;1.00;;;;;;;;;;4761623;29;52518;-60
2021/09/06 00:17:01;;;;;;;1.23;0.90;;;;;;;;;;4762802;29;52337;-60
2021/09/06 00:19:27;;;;;;;6.88;0.90;;;;;;;;;;4763830;29;52143;-60
2021/09/06 00:21:53;;;;;;;14.75;2.25;;;;;;;;;;4763153;29;52262;-60
2021/09/06 00:24:19;;;;;;;3.67;0.90;;;;;;;;;;4762913;29;54192;-60
2021/09/06 00:26:45;;;;;;;1.65;0.90;;;;;;;;;;4762813;29;52364;-60
2021/09/06 00:29:11;;;;;;;1.15;0.90;;;;;;;;;;4764152;29;52358;-60
2021/09/06 00:31:37;;;;;;;1.52;0.90;;;;;;;;;;4762685;29;52270;-60
2021/09/06 00:34:03;;;;;;;7.40;0.82;;;;;;;;;;4768276;29;52416;-60
2021/09/06 00:36:29;;;;;;;1.35;0.90;;;;;;;;;;4762124;29;52430;-59
2021/09/06 00:38:55;;;;;;;1.80;0.90;;;;;;;;;;4764871;29;52380;-60
2021/09/06 00:41:23;;;;;;;3.45;1.00;;;;;;;;;;4764362;29;52309;-60
2021/09/06 00:43:50;;;;;;;3.17;0.95;;;;;;;;;;4763271;29;51903;-61
2021/09/06 00:46:16;;;;;;;3.95;1.00;;;;;;;;;;4761424;29;53630;-60
2021/09/06 00:48:41;;;;;;;1.45;0.98;;;;;;;;;;4762500;29;52378;-60
2021/09/06 00:51:07;;;;;;;1.40;0.90;;;;;;;;;;4763224;29;52111;-60
2021/09/06 00:53:33;;;;;;;5.07;1.00;;;;;;;;;;4763359;29;52229;-61
2021/09/06 00:56:02;;;;;;;1.98;1.17;;;;;;;;;;4767865;29;52278;-60
2021/09/06 00:58:28;;;;;;;1.70;1.00;;;;;;;;;;4762218;29;52327;-59
2021/09/06 01:00:54;;;;;;;1.92;1.10;;;;;;;;;;4762926;29;52302;-61
2021/09/06 01:03:20;;;;;;;3.70;1.00;;;;;;;;;;4762987;29;52270;-60
2021/09/06 01:05:46;;;;;;;2.30;0.90;;;;;;;;;;4763517;29;52270;-60
2021/09/06 01:08:12;;;;;;;1.58;0.90;;;;;;;;;;4763005;29;52452;-60
2021/09/06 01:10:38;;;;;;;1.67;1.00;;;;;;;;;;4761837;29;52431;-60
2021/09/06 01:13:04;;;;;;;2.47;1.13;;;;;;;;;;4762119;29;52330;-60
2021/09/06 01:15:30;;;;;;;3.00;0.98;;;;;;;;;;4763286;29;52401;-60
2021/09/06 01:17:56;;;;;;;1.77;1.13;;;;;;;;;;4762046;29;52961;-61
2021/09/06 01:20:22;;;;;;;3.85;1.23;;;;;;;;;;4761554;29;52424;-60
2021/09/06 01:22:48;;;;;;;3.13;1.00;;;;;;;;;;4762566;29;52166;-60
2021/09/06 01:25:15;;;;;;;6.35;1.00;;;;;;;;;;4762050;29;52241;-60
2021/09/06 01:27:43;;;;;;;7.93;1.00;;;;;;;;;;4762589;29;52244;-60
2021/09/06 01:30:09;;;;;;;1.83;1.10;;;;;;;;;;4762524;29;53442;-60
2021/09/06 01:32:35;;;;;;;1.67;0.93;;;;;;;;;;4762407;29;52366;-59
2021/09/06 01:35:01;;;;;;;2.83;1.00;;;;;;;;;;4762359;29;52079;-60
2021/09/06 01:37:27;;;;;;;2.50;1.17;;;;;;;;;;4762008;29;52317;-60
2021/09/06 01:39:53;;;;;;;9.88;1.17;;;;;;;;;;4761873;29;52400;-59
2021/09/06 01:42:19;;;;;;;2.25;0.90;;;;;;;;;;4761849;29;52306;-60
2021/09/06 01:44:45;;;;;;;2.20;1.10;;;;;;;;;;4762328;29;52311;-60
2021/09/06 01:47:11;;;;;;;1.50;0.90;;;;;;;;;;4762128;29;52324;-60
2021/09/06 01:49:37;;;;;;;16.73;1.08;;;;;;;;;;4762334;29;52356;-60
2021/09/06 01:52:03;;;;;;;4.35;1.10;;;;;;;;;;4761822;29;52516;-61
2021/09/06 01:54:29;;;;;;;1.63;0.95;;;;;;;;;;4761947;29;52435;-60
2021/09/06 01:56:55;;;;;;;3.38;1.02;;;;;;;;;;4761815;29;52446;-60
2021/09/06 01:59:21;;;;;;;12.02;1.00;;;;;;;;;;4761527;29;52414;-61
2021/09/06 02:01:47;;;;;;;2.47;1.15;;;;;;;;;;4762017;29;52941;-60
2021/09/06 02:04:13;;;;;;;8.63;1.40;;;;;;;;;;4762345;29;54106;-60
2021/09/06 02:06:39;;;;;;;2.95;1.00;;;;;;;;;;4761793;29;52275;-60
2021/09/06 02:09:05;;;;;;;3.47;1.30;;;;;;;;;;4761705;29;52252;-61
2021/09/06 02:11:31;;;;;;;2.95;1.30;;;;;;;;;;4762409;29;53663;-60
2021/09/06 02:13:58;;;;;;;3.53;1.08;;;;;;;;;;4761618;29;53516;-61
2021/09/06 02:16:25;;;;;;;1.85;1.15;;;;;;;;;;4761855;29;52338;-60
2021/09/06 02:18:51;;;;;;;7.35;1.20;;;;;;;;;;4738714;29;392962;-59
2021/09/06 02:21:17;;;;;;;4.57;1.20;;;;;;;;;;4761768;29;52300;-59
2021/09/06 02:23:43;;;;;;;8.80;1.45;;;;;;;;;;4761548;29;53294;-60
2021/09/06 02:26:09;;;;;;;2.05;1.20;;;;;;;;;;4738855;29;273174;-59
2021/09/06 02:28:35;;;;;;;3.20;1.20;;;;;;;;;;4766411;29;52198;-59
2021/09/06 02:31:01;;;;;;;4.72;1.38;;;;;;;;;;4760700;29;52691;-59
2021/09/06 02:33:27;;;;;;;5.88;1.50;;;;;;;;;;4761796;29;52052;-59
2021/09/06 02:35:53;;;;;;;3.72;1.10;;;;;;;;;;4761219;29;53860;-60
2021/09/06 02:38:19;;;;;;;5.80;1.55;;;;;;;;;;4761717;29;52377;-59
2021/09/06 02:40:45;;;;;;;4.82;1.50;;;;;;;;;;4763801;29;52303;-59
2021/09/06 02:43:11;;;;;;;6.60;1.33;;;;;;;;;;4765012;29;52031;-59
2021/09/06 02:45:37;;;;;;;11.25;1.58;;;;;;;;;;4769097;29;53275;-58
2021/09/06 02:48:03;;;;;;;7.93;1.35;;;;;;;;;;4764138;29;52176;-58
2021/09/06 02:50:29;;;;;;;4.88;1.38;;;;;;;;;;4758704;29;52248;-58
2021/09/06 02:52:55;;;;;;;5.07;1.85;;;;;;;;;;4764406;29;52297;-60
2021/09/06 02:55:21;;;;;;;13.05;1.50;;;;;;;;;;4764727;29;52227;-60
2021/09/06 02:57:47;;;;;;;7.25;1.98;;;;;;;;;;4769359;29;54279;-61
2021/09/06 03:00:14;;;;;;;4.68;1.38;;;;;;;;;;4763905;29;52302;-58
2021/09/06 03:02:40;;;;;;;2.25;1.20;;;;;;;;;;4765555;29;52445;-60
2021/09/06 03:05:07;;;;;;;6.90;1.67;;;;;;;;;;4782582;29;51995;-61
2021/09/06 03:07:33;;;;;;;8.02;1.50;;;;;;;;;;4733128;29;54390;-61
2021/09/06 03:09:59;;;;;;;3.97;1.38;;;;;;;;;;4751909;29;52425;-60
2021/09/06 03:12:25;;;;;;;6.88;1.98;;;;;;;;;;4744755;29;52304;-60
2021/09/06 03:14:51;;;;;;;5.95;2.00;;;;;;;;;;4745744;29;52331;-61
2021/09/06 03:17:17;;;;;;;11.32;2.50;;;;;;;;;;4746545;29;52150;-61
2021/09/06 03:19:42;;;;;;;8.07;2.05;;;;;;;;;;4744598;29;53822;-60
2021/09/06 03:22:08;;;;;;;7.32;2.03;;;;;;;;;;4745735;29;52415;-60
2021/09/06 03:24:34;;;;;;;12.43;1.90;;;;;;;;;;4745821;29;52324;-61
2021/09/06 03:27:00;;;;;;;10.23;2.30;;;;;;;;;;4746760;29;52402;-61
2021/09/06 03:29:26;;;;;;;14.73;2.38;;;;;;;;;;4746042;29;53911;-61
2021/09/06 03:31:52;;;;;;;12.52;2.63;;;;;;;;;;4745593;29;52366;-62
2021/09/06 03:34:18;;;;;;;26.40;2.40;;;;;;;;;;4746326;29;52686;-60
2021/09/06 03:36:44;;;;;;;9.18;2.10;;;;;;;;;;4750948;29;52194;-62
2021/09/06 03:39:10;;;;;;;8.73;2.03;;;;;;;;;;4746330;29;52221;-61
2021/09/06 03:41:36;;;;;;;22.65;2.47;;;;;;;;;;4740880;29;52157;-63
2021/09/06 03:44:02;;;;;;;14.23;2.10;;;;;;;;;;4751007;29;52309;-62
2021/09/06 03:46:30;;;;;;;10.05;2.33;;;;;;;;;;4745533;29;52340;-62
2021/09/06 03:48:56;;;;;;;19.95;2.75;;;;;;;;;;4746020;29;52348;-63
2021/09/06 03:51:22;;;;;;;8.90;2.10;;;;;;;;;;4745120;29;54237;-62
2021/09/06 03:53:48;;;;;;;16.55;2.45;;;;;;;;;;4745638;29;52202;-62
2021/09/06 03:56:15;;;;;;;11.68;2.20;;;;;;;;;;4745079;29;52256;-64
2021/09/06 03:58:41;;;;;;;21.23;2.83;;;;;;;;;;4745107;29;52331;-61
2021/09/06 04:01:07;;;;;;;11.05;1.77;;;;;;;;;;4746266;29;52369;-62
2021/09/06 04:03:33;;;;;;;6.00;1.83;;;;;;;;;;4744616;29;53962;-62
2021/09/06 04:05:59;;;;;;;14.52;2.03;;;;;;;;;;4745099;29;52151;-62
2021/09/06 04:08:25;;;;;;;7.78;2.00;;;;;;;;;;4743689;29;52365;-64
2021/09/06 04:10:52;;;;;;;14.20;1.67;;;;;;;;;;4745423;29;52484;-62
2021/09/06 04:13:18;;;;;;;10.05;2.10;;;;;;;;;;4726326;29;52795;-63
2021/09/06 04:15:47;;;;;;;8.52;1.98;;;;;;;;;;4745055;29;52352;-63
2021/09/06 04:18:17;;;;;;;11.23;2.20;;;;;;;;;;4745326;29;52298;-62
2021/09/06 04:20:43;;;;;;;19.00;4.22;;;;;;;;;;4745763;29;52348;-64
2021/09/06 04:23:09;;;;;;;21.67;4.38;;;;;;;;;;4743765;29;52332;-63
2021/09/06 04:25:35;;;;;;;26.95;5.25;;;;;;;;;;4744724;29;52785;-63
2021/09/06 04:28:01;;;;;;;38.42;7.50;;;;;;;;;;4744825;29;52231;-61
2021/09/06 04:30:27;;;;;;;34.85;7.88;;;;;;;;;;4745251;29;52361;-63
2021/09/06 04:32:53;;;;;;;37.10;6.70;;;;;;;;;;4744316;29;52245;-64
2021/09/06 04:35:19;;;;;;;25.05;6.75;;;;;;;;;;4743987;29;52902;-63
2021/09/06 04:37:45;;;;;;;20.05;5.03;;;;;;;;;;4720369;29;52160;-63
2021/09/06 04:40:12;;;;;;;18.98;4.60;;;;;;;;;;4634868;29;53610;-63
2021/09/06 04:42:38;;;;;;;23.83;4.22;;;;;;;;;;4776739;29;52701;-62
2021/09/06 04:45:05;;;;;;;42.25;5.63;;;;;;;;;;4779968;29;52286;-62
2021/09/06 04:47:31;;;;;;;21.85;4.45;;;;;;;;;;4776357;29;53869;-62
2021/09/06 04:49:57;;;;;;;12.18;3.13;;;;;;;;;;4777569;29;53550;-62
2021/09/06 04:52:22;;;;;;;21.73;4.35;;;;;;;;;;4779578;29;52302;-63
2021/09/06 04:54:48;;;;;;;18.05;5.45;;;;;;;;;;4778714;29;52373;-62
2021/09/06 04:57:14;;;;;;;36.63;8.77;;;;;;;;;;4778899;29;53325;-62
2021/09/06 04:59:40;;;;;;;36.03;11.07;;;;;;;;;;4778783;29;52193;-64
2021/09/06 05:02:06;;;;;;;37.63;12.13;;;;;;;;;;4778016;29;52530;-62
2021/09/06 05:04:32;;;;;;;37.38;11.27;;;;;;;;;;4749362;29;52360;-62
2021/09/06 05:06:58;;;;;;;43.03;13.00;;;;;;;;;;4736859;29;52442;-61
2021/09/06 05:09:24;;;;;;;48.00;16.77;;;;;;;;;;4726468;29;53621;-62
2021/09/06 05:11:51;;;;;;;60.92;17.63;;;;;;;;;;4732043;29;53101;-62
2021/09/06 05:14:17;;;;;;;51.70;14.95;;;;;;;;;;4720982;29;52343;-61
2021/09/06 05:16:43;;;;;;;54.58;14.70;;;;;;;;;;4725769;29;52267;-61
2021/09/06 05:19:09;;;;;;;49.83;15.20;;;;;;;;;;4723930;29;54112;-61
2021/09/06 05:21:35;;;;;;;101.05;21.42;;;;;;;;;;4731068;29;52464;-63
2021/09/06 05:24:03;;;;;;;89.70;27.67;;;;;;;;;;4713034;29;53889;-63
2021/09/06 05:26:29;;;;;;;95.13;29.20;;;;;;;;;;4731568;29;52853;-65
2021/09/06 05:28:55;;;;;;;88.82;28.95;;;;;;;;;;4722484;29;52146;-65
2021/09/06 05:31:21;;;;;;;99.45;33.08;;;;;;;;;;4735286;29;52944;-65
2021/09/06 05:33:47;;;;;;;97.88;31.30;;;;;;;;;;4712384;29;52688;-64
2021/09/06 05:36:13;;;;;;;84.28;29.27;;;;;;;;;;4715594;29;53604;-65
2021/09/06 05:38:40;;;;;;;81.00;26.67;;;;;;;;;;4735591;29;52503;-63
2021/09/06 05:41:06;;;;;;;88.60;27.65;;;;;;;;;;4731002;29;54328;-64
2021/09/06 05:43:33;;;;;;;82.32;28.60;;;;;;;;;;4733032;29;52353;-64
2021/09/06 05:45:59;;;;;;;68.85;24.70;;;;;;;;;;4747567;29;52320;-63
2021/09/06 05:48:25;;;;;;;75.35;25.70;;;;;;;;;;4748616;29;52323;-64
2021/09/06 05:50:51;;;;;;;91.43;28.00;;;;;;;;;;4694744;29;54184;-64
2021/09/06 05:53:17;;;;;;;79.80;26.45;;;;;;;;;;4708125;29;53479;-65
2021/09/06 05:55:43;;;;;;;69.28;25.20;;;;;;;;;;4739461;29;52977;-64
2021/09/06 05:58:09;;;;;;;57.83;22.02;;;;;;;;;;4740480;29;52429;-63
2021/09/06 06:00:36;;;;;;;70.93;21.48;;;;;;;;;;4732477;29;52295;-66
2021/09/06 06:03:02;;;;;;;56.35;18.88;;;;;;;;;;4713350;29;54516;-67
2021/09/06 06:05:28;;;;;;;44.42;16.92;;;;;;;;;;4715393;29;53721;-64
2021/09/06 06:07:54;;;;;;;52.88;20.13;;;;;;;;;;4707724;29;53490;-65
2021/09/06 06:10:20;;;;;;;46.40;15.38;;;;;;;;;;4723915;29;52414;-64
2021/09/06 06:12:46;;;;;;;43.45;12.68;;;;;;;;;;4721229;29;52291;-63
2021/09/06 06:15:12;;;;;;;31.13;12.07;;;;;;;;;;4724364;29;53460;-62
2021/09/06 06:17:42;;;;;;;46.92;13.55;;;;;;;;;;4716020;29;52521;-63
2021/09/06 06:20:09;;;;;;;62.42;18.08;;;;;;;;;;4710451;29;52367;-64
2021/09/06 06:22:35;;;;;;;54.45;18.27;;;;;;;;;;4716992;29;54026;-62
2021/09/06 06:25:01;;;;;;;64.10;18.17;;;;;;;;;;4725312;29;54569;-62
2021/09/06 06:27:27;;;;;;;54.08;19.02;;;;;;;;;;4714557;29;52752;-66
2021/09/06 06:29:53;;;;;;;59.90;18.05;;;;;;;;;;4725996;29;52097;-62
2021/09/06 06:32:19;;;;;;;53.78;18.13;;;;;;;;;;4728978;29;53574;-62
2021/09/06 06:34:45;;;;;;;46.13;16.98;;;;;;;;;;4749570;29;52351;-63
2021/09/06 06:37:11;;;;;;;52.72;17.58;;;;;;;;;;4743398;29;53754;-62
2021/09/06 06:39:38;;;;;;;52.05;17.98;;;;;;;;;;4704355;29;53082;-61
2021/09/06 06:42:04;;;;;;;49.95;16.48;;;;;;;;;;4721588;29;52318;-63
2021/09/06 06:44:30;;;;;;;44.63;15.07;;;;;;;;;;4726975;29;52181;-61
2021/09/06 06:46:56;;;;;;;43.60;16.60;;;;;;;;;;4741225;29;53835;-62
2021/09/06 06:49:22;;;;;;;40.95;15.63;;;;;;;;;;4742461;29;52486;-61
2021/09/06 06:51:48;;;;;;;40.38;14.13;;;;;;;;;;4734884;29;53419;-63
2021/09/06 06:54:15;;;;;;;42.00;13.75;;;;;;;;;;4731563;29;52343;-63
2021/09/06 06:56:41;;;;;;;38.90;13.30;;;;;;;;;;4730846;29;52923;-61
2021/09/06 06:59:07;;;;;;;37.17;12.45;;;;;;;;;;4730983;29;52818;-62
2021/09/06 07:01:33;;;;;;;29.30;10.90;;;;;;;;;;4736078;29;52352;-61
2021/09/06 07:03:59;;;;;;;24.13;9.45;;;;;;;;;;4728182;29;53846;-60
2021/09/06 07:06:26;;;;;;;26.75;9.95;;;;;;;;;;4725105;29;52511;-64
2021/09/06 07:08:52;;;;;;;38.22;9.98;;;;;;;;;;4729165;29;54004;-63
2021/09/06 07:11:18;;;;;;;22.17;9.02;;;;;;;;;;4723608;29;52381;-62
2021/09/06 07:13:44;;;;;;;27.95;8.60;;;;;;;;;;4724286;29;52593;-65
2021/09/06 07:16:10;;;;;;;25.92;7.47;;;;;;;;;;4727920;29;53435;-62
2021/09/06 07:18:36;;;;;;;21.42;8.20;;;;;;;;;;4736890;29;52348;-64
2021/09/06 07:21:02;;;;;;;23.98;7.38;;;;;;;;;;4736591;29;53085;-64
2021/09/06 07:23:28;;;;;;;28.45;7.07;;;;;;;;;;4735799;29;53904;-64
2021/09/06 07:25:54;;;;;;;25.17;6.88;;;;;;;;;;4736279;29;52304;-65
2021/09/06 07:28:20;;;;;;;19.88;6.93;;;;;;;;;;4736619;29;52067;-62
2021/09/06 07:30:46;;;;;;;28.17;6.50;;;;;;;;;;4738679;29;53988;-65
2021/09/06 07:33:12;;;;;;;28.38;5.43;;;;;;;;;;4739135;29;52503;-63
2021/09/06 07:35:38;;;;;;;16.30;5.20;;;;;;;;;;4730042;29;53812;-62
2021/09/06 07:38:04;;;;;;;15.18;5.30;;;;;;;;;;4731704;29;52599;-62
2021/09/06 07:40:30;;;;;;;14.25;4.55;;;;;;;;;;4729151;29;52414;-66
2021/09/06 07:42:56;;;;;;;16.92;4.88;;;;;;;;;;4730064;29;52888;-61
2021/09/06 07:45:22;;;;;;;29.30;5.00;;;;;;;;;;4738171;29;52254;-63
2021/09/06 07:47:48;;;;;;;22.00;4.93;;;;;;;;;;4725481;29;53885;-59
2021/09/06 07:50:14;;;;;;;40.25;6.13;;;;;;;;;;4741944;29;52528;-62
2021/09/06 07:52:41;;;;;;;92.43;11.55;;;;;;;;;;4742277;29;54363;-59
2021/09/06 07:55:08;;;;;;;63.95;9.52;;;;;;;;;;4741394;29;52445;-62
2021/09/06 07:57:34;;;;;;;76.35;9.57;;;;;;;;;;4739059;29;53835;-60
2021/09/06 08:00:00;;;;;;;73.90;8.93;;;;;;;;;;4742943;29;52501;-60
2021/09/06 08:02:26;;;;;;;69.15;10.10;;;;;;;;;;4730876;29;52779;-59
2021/09/06 08:04:52;;;;;;;60.22;8.45;;;;;;;;;;4728096;29;53947;-63
2021/09/06 08:07:19;;;;;;;60.90;7.97;;;;;;;;;;4723797;29;52380;-60
2021/09/06 08:09:45;;;;;;;58.60;7.55;;;;;;;;;;4739127;29;52524;-59
2021/09/06 08:12:11;;;;;;;59.42;7.60;;;;;;;;;;4743595;29;52254;-60
2021/09/06 08:14:38;;;;;;;64.03;8.93;;;;;;;;;;4740478;29;53688;-59
2021/09/06 08:17:05;;;;;;;60.15;8.40;;;;;;;;;;4733702;29;52540;-60
2021/09/06 08:19:31;;;;;;;45.10;8.25;;;;;;;;;;4723652;29;52468;-58
2021/09/06 08:21:57;;;;;;;45.03;6.13;;;;;;;;;;4733954;29;54157;-58
2021/09/06 08:24:24;;;;;;;42.10;6.43;;;;;;;;;;4725850;29;53593;-63
2021/09/06 08:26:51;;;;;;;78.03;7.97;;;;;;;;;;4732548;29;54294;-60
2021/09/06 08:29:17;;;;;;;71.18;8.32;;;;;;;;;;4742006;29;52357;-60
2021/09/06 08:31:44;;;;;;;88.95;8.00;;;;;;;;;;4739268;29;54057;-60
2021/09/06 08:34:10;;;;;;;43.70;7.10;;;;;;;;;;4736303;29;52463;-60
2021/09/06 08:36:36;;;;;;;50.25;7.15;;;;;;;;;;4739739;29;53182;-60
2021/09/06 08:39:02;;;;;;;39.78;6.35;;;;;;;;;;4724901;29;53345;-61
2021/09/06 08:41:28;;;;;;;60.92;6.45;;;;;;;;;;4719242;29;52444;-62
2021/09/06 08:43:54;;;;;;;48.13;5.55;;;;;;;;;;4724935;29;52503;-63
2021/09/06 08:46:23;;;;;;;49.75;5.45;;;;;;;;;;4718438;29;53937;-62
2021/09/06 08:48:49;;;;;;;65.53;5.20;;;;;;;;;;4732838;29;54244;-62
2021/09/06 08:51:17;;;;;;;37.88;4.93;;;;;;;;;;4738024;29;52329;-62
2021/09/06 08:53:43;;;;;;;46.90;5.10;;;;;;;;;;4715487;29;53980;-63
2021/09/06 08:56:09;;;;;;;29.13;4.10;;;;;;;;;;4742767;29;52281;-63
2021/09/06 08:58:35;;;;;;;23.17;4.53;;;;;;;;;;4740655;29;53417;-62
2021/09/06 09:01:01;;;;;;;30.02;3.92;;;;;;;;;;4728507;29;55162;-62
2021/09/06 09:03:27;;;;;;;24.33;4.07;;;;;;;;;;4737656;29;52340;-62
2021/09/06 09:06:04;;;;;;;45.55;5.28;;;;;;;;;;4704585;29;53371;-63
2021/09/06 09:08:30;;;;;;;41.88;5.70;;;;;;;;;;4743311;29;52389;-61
2021/09/06 09:11:03;;;;;;;40.58;5.88;;;;;;;;;;4732997;29;53781;-62
2021/09/06 09:13:32;;;;;;;39.67;6.13;;;;;;;;;;4729246;29;53080;-58
2021/09/06 09:15:58;;;;;;;40.55;4.97;;;;;;;;;;4741629;29;52365;-59
2021/09/06 09:18:32;;;;;;;39.40;5.00;;;;;;;;;;4729841;29;53066;-61
2021/09/06 09:21:01;;;;;;;25.70;5.18;;;;;;;;;;4739346;29;53042;-62
2021/09/06 09:23:48;;;;;;;109.45;7.68;;;;;;;;;;4742320;29;52345;-63
2021/09/06 09:26:14;;;;;;;108.95;8.15;;;;;;;;;;4728640;29;54174;-62
2021/09/06 09:28:43;;;;;;;66.43;6.25;;;;;;;;;;4739257;29;52444;-62
2021/09/06 09:31:18;;;;;;;110.10;7.07;;;;;;;;;;4742585;29;52273;-63
2021/09/06 09:33:50;;;;;;;116.47;8.48;;;;;;;;;;4710802;29;53692;-63
2021/09/06 09:36:33;;;;;;;114.28;8.15;;;;;;;;;;4739935;29;52381;-62
2021/09/06 09:39:19;;;;;;;137.05;7.35;;;;;;;;;;4739288;29;52100;-64
2021/09/06 09:41:47;;;;;;;81.72;7.07;;;;;;;;;;4722898;29;52733;-63
2021/09/06 09:44:22;;;;;;;61.22;4.75;;;;;;;;;;4740007;29;53028;-62
2021/09/06 09:46:57;;;;;;;33.17;4.45;;;;;;;;;;4729502;29;52518;-62
2021/09/06 09:49:23;;;;;;;62.40;5.93;;;;;;;;;;4724258;29;54101;-64
2021/09/06 09:54:23;;;;;;;30.17;4.70;;;;;;;;;;4232173;33;53607;-62
2021/09/06 09:56:49;;;;;;;46.47;4.72;;;;;;;;;;4865478;28;52212;-65
2021/09/06 09:59:18;;;;;;;44.15;3.63;;;;;;;;;;4883722;28;53619;-61
2021/09/06 10:01:59;;;;;;;36.95;3.55;;;;;;;;;;4834846;28;53635;-61
2021/09/06 10:04:30;;;;;;;31.30;2.95;;;;;;;;;;4865490;28;53588;-63
2021/09/06 10:06:56;;;;;;;31.40;3.60;;;;;;;;;;4862097;28;52437;-65
2021/09/06 10:09:22;;;;;;;16.58;2.50;;;;;;;;;;4865077;28;52169;-64
2021/09/06 10:11:49;;;;;;;32.03;2.63;;;;;;;;;;4843925;28;54063;-63
2021/09/06 10:14:26;;;;;;;24.92;3.10;;;;;;;;;;4885526;28;52518;-62
2021/09/06 10:17:06;;;;;;;33.70;3.13;;;;;;;;;;4864920;28;52355;-63
2021/09/06 10:19:39;;;;;;;28.17;3.40;;;;;;;;;;4883989;28;52230;-61
2021/09/06 10:22:05;;;;;;;26.88;2.42;;;;;;;;;;4871892;28;54617;-62
2021/09/06 10:24:31;;;;;;;30.60;3.65;;;;;;;;;;4881420;28;52259;-61
2021/09/06 10:27:05;;;;;;;22.23;2.00;;;;;;;;;;4882400;28;52178;-63
2021/09/06 10:29:31;;;;;;;32.60;2.38;;;;;;;;;;4866250;28;52253;-65
2021/09/06 10:32:04;;;;;;;32.42;3.67;;;;;;;;;;4881584;28;52275;-61
2021/09/06 10:34:30;;;;;;;29.75;2.30;;;;;;;;;;4852866;28;54010;-62
2021/09/06 10:37:02;;;;;;;41.65;2.80;;;;;;;;;;4862436;28;52278;-61
2021/09/06 10:39:28;;;;;;;31.45;2.20;;;;;;;;;;4883355;28;52265;-62
2021/09/06 10:42:07;;;;;;;32.88;2.55;;;;;;;;;;4880668;28;52494;-62
2021/09/06 10:44:42;;;;;;;27.10;3.10;;;;;;;;;;4882324;28;52631;-61
2021/09/06 10:47:12;;;;;;;37.35;2.38;;;;;;;;;;4882298;28;52223;-64
2021/09/06 10:49:43;;;;;;;13.88;1.77;;;;;;;;;;4880183;28;53377;-60
2021/09/06 10:52:10;;;;;;;30.33;2.67;;;;;;;;;;4795094;28;53916;-60
2021/09/06 10:54:38;;;;;;;16.05;1.77;;;;;;;;;;4836995;29;52214;-60
2021/09/06 10:57:07;;;;;;;28.20;2.28;;;;;;;;;;4846598;29;52939;-61
2021/09/06 10:59:34;;;;;;;20.42;1.77;;;;;;;;;;4806806;29;54386;-64
2021/09/06 11:02:00;;;;;;;25.63;1.70;;;;;;;;;;4831555;29;52307;-61
2021/09/06 11:04:30;;;;;;;24.23;1.92;;;;;;;;;;4837374;29;52412;-64
2021/09/06 11:07:01;;;;;;;19.77;1.90;;;;;;;;;;4810315;29;54202;-63
2021/09/06 11:09:28;;;;;;;27.08;1.60;;;;;;;;;;4830172;29;52188;-63
2021/09/06 11:12:03;;;;;;;15.55;1.92;;;;;;;;;;4825585;29;52757;-62
2021/09/06 11:14:37;;;;;;;17.98;1.35;;;;;;;;;;4824163;29;52238;-58
2021/09/06 11:17:23;;;;;;;25.80;1.52;;;;;;;;;;4832194;29;52309;-59
2021/09/06 11:19:51;;;;;;;18.65;1.98;;;;;;;;;;4832344;29;53347;-58
2021/09/06 11:22:18;;;;;;;20.48;1.63;;;;;;;;;;4829295;29;52596;-58
2021/09/06 11:25:05;;;;;;;10.07;0.90;;;;;;;;;;4808683;29;53700;-60
2021/09/06 11:27:51;;;;;;;13.68;1.25;;;;;;;;;;4814258;29;53532;-58
2021/09/06 11:30:24;;;;;;;11.35;1.33;;;;;;;;;;4810064;29;54242;-62
2021/09/06 11:32:50;;;;;;;17.38;1.30;;;;;;;;;;4831558;29;52399;-60
2021/09/06 11:35:19;;;;;;;15.40;1.42;;;;;;;;;;4807252;29;54173;-60
2021/09/06 11:37:45;;;;;;;24.33;1.38;;;;;;;;;;4833272;29;52223;-60
2021/09/06 11:40:12;;;;;;;11.27;1.27;;;;;;;;;;4830600;29;52397;-60
2021/09/06 11:42:38;;;;;;;17.17;1.33;;;;;;;;;;4830777;29;53697;-61
2021/09/06 11:45:09;;;;;;;16.52;1.52;;;;;;;;;;4805041;29;52425;-59
2021/09/06 11:47:36;;;;;;;20.57;1.30;;;;;;;;;;4829452;29;52207;-61
2021/09/06 11:50:07;;;;;;;10.15;1.00;;;;;;;;;;4791534;29;52465;-60
2021/09/06 11:52:36;;;;;;;11.45;0.98;;;;;;;;;;4829205;29;52844;-61
2021/09/06 11:55:04;;;;;;;11.93;1.25;;;;;;;;;;4820081;29;52376;-60
2021/09/06 11:57:33;;;;;;;3.78;1.15;;;;;;;;;;4832388;29;52165;-60
2021/09/06 11:59:59;;;;;;;4.38;0.90;;;;;;;;;;4788953;29;52944;-59
2021/09/06 12:02:25;;;;;;;9.43;0.90;;;;;;;;;;4818878;29;52232;-59
2021/09/06 12:05:06;;;;;;;7.30;0.95;;;;;;;;;;4809224;29;53937;-60
2021/09/06 12:07:32;;;;;;;11.33;1.17;;;;;;;;;;4831192;29;52356;-60
2021/09/06 12:09:58;;;;;;;14.98;1.42;;;;;;;;;;4810296;29;52531;-59
2021/09/06 12:12:25;;;;;;;15.50;1.63;;;;;;;;;;4832037;29;52315;-60
2021/09/06 12:14:52;;;;;;;8.85;1.35;;;;;;;;;;4819456;29;54081;-60
2021/09/06 12:17:20;;;;;;;9.93;1.27;;;;;;;;;;4829030;29;52357;-59
2021/09/06 12:19:48;;;;;;;5.78;1.35;;;;;;;;;;4830837;29;52266;-62
2021/09/06 12:22:22;;;;;;;6.68;1.38;;;;;;;;;;4829657;29;52093;-62
2021/09/06 12:24:49;;;;;;;5.35;1.20;;;;;;;;;;4830571;29;52404;-63
2021/09/06 12:27:17;;;;;;;10.98;1.40;;;;;;;;;;4798945;29;54125;-65
2021/09/06 12:29:43;;;;;;;21.45;1.65;;;;;;;;;;4832438;29;52778;-63
2021/09/06 12:32:18;;;;;;;22.95;1.40;;;;;;;;;;4820265;29;53159;-63
2021/09/06 12:34:44;;;;;;;21.65;1.73;;;;;;;;;;4813362;29;53528;-61
2021/09/06 12:37:13;;;;;;;17.60;1.52;;;;;;;;;;4817219;29;54469;-61
2021/09/06 12:39:39;;;;;;;20.13;1.20;;;;;;;;;;4826163;29;53517;-61
2021/09/06 12:42:05;;;;;;;13.35;1.30;;;;;;;;;;4832392;29;52268;-61
2021/09/06 12:44:32;;;;;;;11.73;1.10;;;;;;;;;;4821453;29;52300;-61
2021/09/06 12:46:58;;;;;;;22.38;1.42;;;;;;;;;;4830235;29;52324;-62
2021/09/06 12:49:26;;;;;;;16.77;1.92;;;;;;;;;;4828026;29;53377;-60
2021/09/06 12:51:53;;;;;;;12.88;1.80;;;;;;;;;;4819288;29;54172;-63
2021/09/06 12:54:19;;;;;;;15.43;1.40;;;;;;;;;;4832833;29;52846;-63
2021/09/06 12:56:45;;;;;;;12.43;1.38;;;;;;;;;;4806905;29;53717;-63
2021/09/06 12:59:11;;;;;;;7.28;1.58;;;;;;;;;;4820605;29;53292;-61
2021/09/06 13:01:37;;;;;;;10.77;1.58;;;;;;;;;;4826132;29;52368;-61
2021/09/06 13:04:03;;;;;;;25.05;1.67;;;;;;;;;;4811228;29;53312;-62
2021/09/06 13:06:29;;;;;;;17.42;1.73;;;;;;;;;;4794838;29;54121;-60
2021/09/06 13:08:55;;;;;;;10.88;1.65;;;;;;;;;;4815025;29;52300;-60
2021/09/06 13:11:21;;;;;;;13.90;1.88;;;;;;;;;;4833872;29;53908;-60
2021/09/06 13:13:47;;;;;;;31.50;6.50;;;;;;;;;;4832203;29;52802;-60
2021/09/06 13:16:13;;;;;;;54.97;10.23;;;;;;;;;;4815982;29;54141;-60
2021/09/06 13:18:40;;;;;;;45.42;9.05;;;;;;;;;;4821174;29;53928;-61
2021/09/06 13:21:06;;;;;;;51.05;7.63;;;;;;;;;;4818086;29;53674;-61
2021/09/06 13:23:32;;;;;;;116.50;17.63;;;;;;;;;;4810264;29;54265;-60
2021/09/06 13:26:03;;;;;;;70.22;13.48;;;;;;;;;;4831207;29;52740;-60
2021/09/06 13:28:29;;;;;;;72.95;12.90;;;;;;;;;;4809994;29;54007;-59
2021/09/06 13:30:55;;;;;;;78.55;13.85;;;;;;;;;;4826458;29;52516;-59
2021/09/06 13:33:21;;;;;;;60.40;11.50;;;;;;;;;;4822778;29;54333;-59
2021/09/06 13:35:48;;;;;;;47.80;10.57;;;;;;;;;;4830191;29;52346;-62
2021/09/06 13:38:13;;;;;;;40.30;9.95;;;;;;;;;;4815537;29;52300;-59
2021/09/06 13:40:39;;;;;;;51.50;11.25;;;;;;;;;;4823649;29;52239;-59
2021/09/06 13:43:05;;;;;;;41.22;10.07;;;;;;;;;;4828186;29;52490;-58
2021/09/06 13:45:31;;;;;;;50.83;10.00;;;;;;;;;;4828444;29;52296;-58
2021/09/06 13:47:57;;;;;;;41.97;8.98;;;;;;;;;;4783437;29;54311;-61
2021/09/06 13:50:23;;;;;;;56.15;9.93;;;;;;;;;;4827853;29;52305;-59
2021/09/06 13:52:49;;;;;;;32.42;7.50;;;;;;;;;;4816808;29;52827;-62
2021/09/06 13:55:15;;;;;;;32.50;7.20;;;;;;;;;;4826934;29;53108;-63
2021/09/06 13:57:41;;;;;;;43.22;7.95;;;;;;;;;;4827404;29;52306;-61
2021/09/06 14:00:08;;;;;;;45.05;8.38;;;;;;;;;;4816099;29;53243;-62
2021/09/06 14:02:34;;;;;;;53.90;9.05;;;;;;;;;;4817786;29;53852;-61
2021/09/06 14:05:00;;;;;;;37.95;7.47;;;;;;;;;;4821417;29;52779;-59
2021/09/06 14:07:26;;;;;;;33.95;6.70;;;;;;;;;;4815482;29;52916;-59
2021/09/06 14:09:52;;;;;;;33.63;6.18;;;;;;;;;;4787395;29;52481;-60
2021/09/06 14:12:18;;;;;;;34.50;6.45;;;;;;;;;;4805596;29;52367;-60
2021/09/06 14:14:44;;;;;;;28.77;5.68;;;;;;;;;;4815218;29;52510;-60
2021/09/06 14:17:12;;;;;;;27.70;4.88;;;;;;;;;;4828431;29;52440;-59
2021/09/06 14:19:38;;;;;;;31.67;5.18;;;;;;;;;;4809411;29;53920;-60
2021/09/06 14:22:05;;;;;;;31.77;4.22;;;;;;;;;;4842473;29;52576;-62
2021/09/06 14:24:31;;;;;;;16.88;4.43;;;;;;;;;;4821329;29;52445;-60
2021/09/06 14:27:00;;;;;;;17.58;3.97;;;;;;;;;;4847870;29;52778;-60
2021/09/06 14:29:26;;;;;;;23.27;4.05;;;;;;;;;;4838026;29;52330;-60
2021/09/06 14:31:52;;;;;;;24.52;4.75;;;;;;;;;;4820417;29;53892;-61
2021/09/06 14:34:18;;;;;;;17.70;3.63;;;;;;;;;;4819229;29;52240;-63